This is the latest recevied weather packets stored in our database for station/object JA3YAI-13. If no packets are shown the sender has not sent any weather packets the latest 1 day(s).
| Time | Temp. | Humidity | Pressure | Rain* | Wind** | Luminosity | Snow |
|---|---|---|---|---|---|---|---|
| 1778040412 | 18.33° C | 75% | 1012.1 hPa | 0 mm | 0 m/s | - | - |
| 1778039812 | 18.33° C | 74% | 1012.3 hPa | 0 mm | 0.45 m/s, 248° | - | - |
| 1778039212 | 18.33° C | 73% | 1012.2 hPa | 0 mm | 0 m/s | - | - |
| 1778038614 | 18.89° C | 72% | 1012.2 hPa | 0 mm | 0 m/s | - | - |
| 1778038014 | 18.89° C | 72% | 1012.3 hPa | 0 mm | 0 m/s | - | - |
| 1778037414 | 17.78° C | 73% | 1012.6 hPa | 0 mm | 0 m/s | - | - |
| 1778036814 | 17.78° C | 74% | 1012.2 hPa | 0 mm | 0.45 m/s, 135° | - | - |
| 1778036214 | 17.78° C | 74% | 1012.6 hPa | 0 mm | 0.45 m/s, 39° | - | - |
| 1778035613 | 17.22° C | 75% | 1013 hPa | 0 mm | 0.45 m/s, 68° | - | - |
| 1778035013 | 17.22° C | 76% | 1012.9 hPa | 0 mm | 0 m/s | - | - |
| 1778034413 | 17.22° C | 77% | 1012.9 hPa | 0 mm | 0 m/s | - | - |
| 1778033813 | 17.22° C | 77% | 1013 hPa | 0 mm | 0 m/s | - | - |
| 1778033213 | 17.22° C | 76% | 1013.1 hPa | 0 mm | 0 m/s | - | - |
| 1778032613 | 17.22° C | 76% | 1013 hPa | 0 mm | 0 m/s | - | - |
| 1778032013 | 17.22° C | 78% | 1013.3 hPa | 0 mm | 0 m/s | - | - |
| 1778031413 | 16.67° C | 79% | 1013 hPa | 0 mm | 0 m/s | - | - |
| 1778030813 | 16.67° C | 78% | 1013.3 hPa | 0 mm | 0 m/s | - | - |
| 1778030213 | 17.22° C | 77% | 1012.9 hPa | 0 mm | 0 m/s | - | - |
| 1778029613 | 17.22° C | 76% | 1013 hPa | 0 mm | 0.45 m/s, 135° | - | - |
| 1778029012 | 17.78° C | 75% | 1013 hPa | 0 mm | 0.45 m/s, 113° | - | - |
| 1778028412 | 17.22° C | 79% | 1012.8 hPa | 0 mm | 0 m/s | - | - |
| 1778027812 | 16.67° C | 81% | 1012.9 hPa | 0 mm | 0 m/s | - | - |
| 1778027212 | 16.11° C | 81% | 1012.9 hPa | 0 mm | 0.45 m/s, 134° | - | - |
| 1778026612 | 16.11° C | 80% | 1013.1 hPa | 0 mm | 0.45 m/s, 133° | - | - |
| 1778026014 | 16.11° C | 81% | 1013.1 hPa | 0 mm | 0.45 m/s, 33° | - | - |
* Rain latest hour (hover to see other rain measurements)
** Current wind speed in m/s (hover to see current wind gust speed)